sensor_id;sensor_type;location;lat;lon;timestamp;P1;durP1;ratioP1;P2;durP2;ratioP2
71969;SDS011;59838;52.152;5.436;2023-04-15T00:00:54;4.47;;;2.70;;
71969;SDS011;59838;52.152;5.436;2023-04-15T00:03:21;4.43;;;2.72;;
71969;SDS011;59838;52.152;5.436;2023-04-15T00:05:48;3.67;;;2.53;;
71969;SDS011;59838;52.152;5.436;2023-04-15T00:08:14;4.60;;;2.83;;
71969;SDS011;59838;52.152;5.436;2023-04-15T00:10:41;8.20;;;3.20;;
71969;SDS011;59838;52.152;5.436;2023-04-15T00:13:09;4.03;;;2.63;;
71969;SDS011;59838;52.152;5.436;2023-04-15T00:15:35;4.60;;;3.58;;
71969;SDS011;59838;52.152;5.436;2023-04-15T00:18:02;7.95;;;3.38;;
71969;SDS011;59838;52.152;5.436;2023-04-15T00:20:29;8.85;;;3.72;;
71969;SDS011;59838;52.152;5.436;2023-04-15T00:22:56;5.33;;;3.23;;
71969;SDS011;59838;52.152;5.436;2023-04-15T00:25:24;7.20;;;3.00;;
71969;SDS011;59838;52.152;5.436;2023-04-15T00:27:51;6.32;;;3.10;;
71969;SDS011;59838;52.152;5.436;2023-04-15T00:30:17;7.18;;;3.38;;
71969;SDS011;59838;52.152;5.436;2023-04-15T00:32:44;7.70;;;3.58;;
71969;SDS011;59838;52.152;5.436;2023-04-15T00:35:12;8.43;;;4.07;;
71969;SDS011;59838;52.152;5.436;2023-04-15T00:37:38;8.05;;;3.50;;
71969;SDS011;59838;52.152;5.436;2023-04-15T00:40:05;6.75;;;3.47;;
71969;SDS011;59838;52.152;5.436;2023-04-15T00:42:37;3.40;;;2.75;;
71969;SDS011;59838;52.152;5.436;2023-04-15T00:45:04;7.57;;;3.22;;
71969;SDS011;59838;52.152;5.436;2023-04-15T00:47:32;6.40;;;2.87;;
71969;SDS011;59838;52.152;5.436;2023-04-15T00:50:00;4.63;;;2.70;;
71969;SDS011;59838;52.152;5.436;2023-04-15T00:52:27;7.68;;;3.22;;
71969;SDS011;59838;52.152;5.436;2023-04-15T00:54:54;8.15;;;4.20;;
71969;SDS011;59838;52.152;5.436;2023-04-15T00:57:20;4.70;;;2.33;;
71969;SDS011;59838;52.152;5.436;2023-04-15T00:59:47;4.80;;;3.37;;
71969;SDS011;59838;52.152;5.436;2023-04-15T01:02:14;7.15;;;2.60;;
71969;SDS011;59838;52.152;5.436;2023-04-15T01:04:41;6.65;;;3.22;;
71969;SDS011;59838;52.152;5.436;2023-04-15T01:07:08;10.50;;;3.03;;
71969;SDS011;59838;52.152;5.436;2023-04-15T01:09:35;8.50;;;3.60;;
71969;SDS011;59838;52.152;5.436;2023-04-15T01:12:01;3.47;;;2.93;;
71969;SDS011;59838;52.152;5.436;2023-04-15T01:14:29;4.45;;;3.10;;
71969;SDS011;59838;52.152;5.436;2023-04-15T01:16:55;6.25;;;3.25;;
71969;SDS011;59838;52.152;5.436;2023-04-15T01:19:22;4.82;;;2.78;;
71969;SDS011;59838;52.152;5.436;2023-04-15T01:21:49;9.10;;;3.10;;
71969;SDS011;59838;52.152;5.436;2023-04-15T01:24:16;7.23;;;3.20;;
71969;SDS011;59838;52.152;5.436;2023-04-15T01:26:43;6.35;;;2.90;;
71969;SDS011;59838;52.152;5.436;2023-04-15T01:29:10;6.20;;;3.30;;
71969;SDS011;59838;52.152;5.436;2023-04-15T01:31:37;4.82;;;3.10;;
71969;SDS011;59838;52.152;5.436;2023-04-15T01:34:04;9.52;;;3.38;;
71969;SDS011;59838;52.152;5.436;2023-04-15T01:36:31;5.37;;;3.27;;
71969;SDS011;59838;52.152;5.436;2023-04-15T01:38:57;7.85;;;2.60;;
71969;SDS011;59838;52.152;5.436;2023-04-15T01:41:25;5.18;;;2.70;;
71969;SDS011;59838;52.152;5.436;2023-04-15T01:43:52;6.70;;;2.72;;
71969;SDS011;59838;52.152;5.436;2023-04-15T01:46:19;4.20;;;2.78;;
71969;SDS011;59838;52.152;5.436;2023-04-15T01:48:46;7.07;;;2.63;;
71969;SDS011;59838;52.152;5.436;2023-04-15T01:51:12;5.90;;;3.22;;
71969;SDS011;59838;52.152;5.436;2023-04-15T01:53:38;5.32;;;2.95;;
71969;SDS011;59838;52.152;5.436;2023-04-15T01:56:05;6.95;;;3.50;;
71969;SDS011;59838;52.152;5.436;2023-04-15T01:58:32;5.22;;;2.63;;
71969;SDS011;59838;52.152;5.436;2023-04-15T02:00:58;8.83;;;3.37;;
71969;SDS011;59838;52.152;5.436;2023-04-15T02:03:27;4.00;;;2.65;;
71969;SDS011;59838;52.152;5.436;2023-04-15T02:05:54;8.60;;;3.33;;
71969;SDS011;59838;52.152;5.436;2023-04-15T02:08:21;7.05;;;3.03;;
71969;SDS011;59838;52.152;5.436;2023-04-15T02:10:48;6.55;;;2.95;;
71969;SDS011;59838;52.152;5.436;2023-04-15T02:13:14;5.77;;;3.53;;
71969;SDS011;59838;52.152;5.436;2023-04-15T02:15:48;8.65;;;2.80;;
71969;SDS011;59838;52.152;5.436;2023-04-15T02:18:15;5.80;;;2.70;;
71969;SDS011;59838;52.152;5.436;2023-04-15T02:20:41;4.88;;;2.72;;
71969;SDS011;59838;52.152;5.436;2023-04-15T02:23:12;6.63;;;3.50;;
71969;SDS011;59838;52.152;5.436;2023-04-15T02:25:38;6.53;;;2.70;;
71969;SDS011;59838;52.152;5.436;2023-04-15T02:28:05;8.02;;;3.10;;
71969;SDS011;59838;52.152;5.436;2023-04-15T02:30:32;5.65;;;2.38;;
71969;SDS011;59838;52.152;5.436;2023-04-15T02:33:00;2.80;;;2.08;;
71969;SDS011;59838;52.152;5.436;2023-04-15T02:35:27;7.07;;;2.17;;
71969;SDS011;59838;52.152;5.436;2023-04-15T02:37:54;8.10;;;2.90;;
71969;SDS011;59838;52.152;5.436;2023-04-15T02:40:20;3.22;;;2.50;;
71969;SDS011;59838;52.152;5.436;2023-04-15T02:42:47;7.43;;;3.63;;
71969;SDS011;59838;52.152;5.436;2023-04-15T02:45:13;5.10;;;3.50;;
71969;SDS011;59838;52.152;5.436;2023-04-15T02:47:40;4.15;;;2.50;;
71969;SDS011;59838;52.152;5.436;2023-04-15T02:50:07;4.57;;;2.40;;
71969;SDS011;59838;52.152;5.436;2023-04-15T02:52:35;4.30;;;2.70;;
71969;SDS011;59838;52.152;5.436;2023-04-15T02:55:01;5.25;;;3.17;;
71969;SDS011;59838;52.152;5.436;2023-04-15T02:57:29;10.88;;;3.08;;
71969;SDS011;59838;52.152;5.436;2023-04-15T02:59:56;3.63;;;2.45;;
71969;SDS011;59838;52.152;5.436;2023-04-15T03:02:22;8.17;;;2.73;;
71969;SDS011;59838;52.152;5.436;2023-04-15T03:04:49;5.68;;;2.13;;
71969;SDS011;59838;52.152;5.436;2023-04-15T03:07:16;6.22;;;3.22;;
71969;SDS011;59838;52.152;5.436;2023-04-15T03:09:43;3.28;;;2.20;;
71969;SDS011;59838;52.152;5.436;2023-04-15T03:12:10;9.38;;;3.17;;
71969;SDS011;59838;52.152;5.436;2023-04-15T03:14:37;5.00;;;2.50;;
71969;SDS011;59838;52.152;5.436;2023-04-15T03:17:03;5.65;;;2.53;;
71969;SDS011;59838;52.152;5.436;2023-04-15T03:19:30;4.75;;;2.97;;
71969;SDS011;59838;52.152;5.436;2023-04-15T03:21:56;5.43;;;2.95;;
71969;SDS011;59838;52.152;5.436;2023-04-15T03:24:23;5.28;;;3.10;;
71969;SDS011;59838;52.152;5.436;2023-04-15T03:26:50;3.80;;;2.60;;
71969;SDS011;59838;52.152;5.436;2023-04-15T03:29:16;7.20;;;3.42;;
71969;SDS011;59838;52.152;5.436;2023-04-15T03:31:42;5.38;;;2.70;;
71969;SDS011;59838;52.152;5.436;2023-04-15T03:34:09;6.22;;;3.72;;
71969;SDS011;59838;52.152;5.436;2023-04-15T03:36:35;4.97;;;2.88;;
71969;SDS011;59838;52.152;5.436;2023-04-15T03:39:02;6.77;;;3.30;;
71969;SDS011;59838;52.152;5.436;2023-04-15T03:41:29;8.48;;;3.97;;
71969;SDS011;59838;52.152;5.436;2023-04-15T03:43:56;7.85;;;3.28;;
71969;SDS011;59838;52.152;5.436;2023-04-15T03:46:22;5.25;;;3.00;;
71969;SDS011;59838;52.152;5.436;2023-04-15T03:48:49;7.40;;;3.13;;
71969;SDS011;59838;52.152;5.436;2023-04-15T03:51:15;6.77;;;3.23;;
71969;SDS011;59838;52.152;5.436;2023-04-15T03:53:42;3.85;;;2.70;;
71969;SDS011;59838;52.152;5.436;2023-04-15T03:56:08;4.15;;;3.03;;
71969;SDS011;59838;52.152;5.436;2023-04-15T03:58:34;6.20;;;3.30;;
71969;SDS011;59838;52.152;5.436;2023-04-15T04:01:01;5.05;;;3.20;;
71969;SDS011;59838;52.152;5.436;2023-04-15T04:03:28;6.30;;;3.17;;
71969;SDS011;59838;52.152;5.436;2023-04-15T04:05:55;5.50;;;3.10;;
71969;SDS011;59838;52.152;5.436;2023-04-15T04:08:21;6.00;;;3.13;;
71969;SDS011;59838;52.152;5.436;2023-04-15T04:10:48;5.03;;;2.97;;
71969;SDS011;59838;52.152;5.436;2023-04-15T04:13:14;5.13;;;2.88;;
71969;SDS011;59838;52.152;5.436;2023-04-15T04:15:41;7.63;;;3.40;;
71969;SDS011;59838;52.152;5.436;2023-04-15T04:18:07;6.53;;;3.35;;
71969;SDS011;59838;52.152;5.436;2023-04-15T04:20:33;7.43;;;3.95;;
71969;SDS011;59838;52.152;5.436;2023-04-15T04:23:00;6.38;;;3.05;;
71969;SDS011;59838;52.152;5.436;2023-04-15T04:25:27;7.13;;;3.47;;
71969;SDS011;59838;52.152;5.436;2023-04-15T04:27:53;6.23;;;3.57;;
71969;SDS011;59838;52.152;5.436;2023-04-15T04:30:20;5.20;;;3.20;;
71969;SDS011;59838;52.152;5.436;2023-04-15T04:32:46;6.53;;;3.65;;
71969;SDS011;59838;52.152;5.436;2023-04-15T04:35:15;6.68;;;3.55;;
71969;SDS011;59838;52.152;5.436;2023-04-15T04:37:41;7.13;;;3.90;;
71969;SDS011;59838;52.152;5.436;2023-04-15T04:40:08;10.73;;;3.13;;
71969;SDS011;59838;52.152;5.436;2023-04-15T04:42:35;8.25;;;3.40;;
71969;SDS011;59838;52.152;5.436;2023-04-15T04:45:05;7.85;;;4.10;;
71969;SDS011;59838;52.152;5.436;2023-04-15T04:47:32;5.53;;;3.28;;
71969;SDS011;59838;52.152;5.436;2023-04-15T04:49:58;5.07;;;3.38;;
71969;SDS011;59838;52.152;5.436;2023-04-15T04:52:25;7.43;;;2.83;;
71969;SDS011;59838;52.152;5.436;2023-04-15T04:54:51;6.85;;;2.35;;
71969;SDS011;59838;52.152;5.436;2023-04-15T04:57:18;7.78;;;4.10;;
71969;SDS011;59838;52.152;5.436;2023-04-15T04:59:44;5.30;;;3.58;;
71969;SDS011;59838;52.152;5.436;2023-04-15T05:02:10;5.65;;;3.58;;
71969;SDS011;59838;52.152;5.436;2023-04-15T05:04:37;6.03;;;3.53;;
71969;SDS011;59838;52.152;5.436;2023-04-15T05:07:04;6.65;;;4.03;;
71969;SDS011;59838;52.152;5.436;2023-04-15T05:09:30;5.63;;;3.33;;
71969;SDS011;59838;52.152;5.436;2023-04-15T05:11:57;4.68;;;2.60;;
71969;SDS011;59838;52.152;5.436;2023-04-15T05:14:24;7.28;;;3.80;;
71969;SDS011;59838;52.152;5.436;2023-04-15T05:16:51;5.10;;;2.47;;
71969;SDS011;59838;52.152;5.436;2023-04-15T05:19:17;3.38;;;2.35;;
71969;SDS011;59838;52.152;5.436;2023-04-15T05:21:44;4.78;;;3.00;;
71969;SDS011;59838;52.152;5.436;2023-04-15T05:24:10;5.47;;;3.10;;
71969;SDS011;59838;52.152;5.436;2023-04-15T05:26:36;5.45;;;3.35;;
71969;SDS011;59838;52.152;5.436;2023-04-15T05:29:03;4.47;;;3.07;;
71969;SDS011;59838;52.152;5.436;2023-04-15T05:31:30;8.07;;;4.20;;
71969;SDS011;59838;52.152;5.436;2023-04-15T05:33:57;7.80;;;4.10;;
71969;SDS011;59838;52.152;5.436;2023-04-15T05:36:23;4.22;;;2.95;;
71969;SDS011;59838;52.152;5.436;2023-04-15T05:38:49;4.68;;;3.13;;
71969;SDS011;59838;52.152;5.436;2023-04-15T05:41:16;6.33;;;2.83;;
71969;SDS011;59838;52.152;5.436;2023-04-15T05:43:45;5.82;;;3.65;;
71969;SDS011;59838;52.152;5.436;2023-04-15T05:46:11;4.80;;;3.47;;
71969;SDS011;59838;52.152;5.436;2023-04-15T05:48:38;5.82;;;3.40;;
71969;SDS011;59838;52.152;5.436;2023-04-15T05:51:04;10.90;;;4.50;;
71969;SDS011;59838;52.152;5.436;2023-04-15T05:53:31;11.33;;;5.23;;
71969;SDS011;59838;52.152;5.436;2023-04-15T05:55:58;13.60;;;6.70;;
71969;SDS011;59838;52.152;5.436;2023-04-15T05:58:24;18.73;;;8.05;;
71969;SDS011;59838;52.152;5.436;2023-04-15T06:00:51;16.52;;;7.72;;
71969;SDS011;59838;52.152;5.436;2023-04-15T06:03:21;14.98;;;6.68;;
71969;SDS011;59838;52.152;5.436;2023-04-15T06:05:48;15.93;;;7.03;;
71969;SDS011;59838;52.152;5.436;2023-04-15T06:08:14;18.75;;;7.55;;
71969;SDS011;59838;52.152;5.436;2023-04-15T06:10:41;17.02;;;7.95;;
71969;SDS011;59838;52.152;5.436;2023-04-15T06:13:07;24.80;;;9.27;;
71969;SDS011;59838;52.152;5.436;2023-04-15T06:15:34;17.67;;;8.30;;
71969;SDS011;59838;52.152;5.436;2023-04-15T06:18:00;14.23;;;7.33;;
71969;SDS011;59838;52.152;5.436;2023-04-15T06:20:28;14.88;;;6.82;;
71969;SDS011;59838;52.152;5.436;2023-04-15T06:22:54;9.50;;;6.07;;
71969;SDS011;59838;52.152;5.436;2023-04-15T06:25:21;10.35;;;5.05;;
71969;SDS011;59838;52.152;5.436;2023-04-15T06:27:48;7.70;;;4.68;;
71969;SDS011;59838;52.152;5.436;2023-04-15T06:30:14;8.67;;;4.33;;
71969;SDS011;59838;52.152;5.436;2023-04-15T06:32:41;9.30;;;3.83;;
71969;SDS011;59838;52.152;5.436;2023-04-15T06:35:07;3.97;;;3.35;;
71969;SDS011;59838;52.152;5.436;2023-04-15T06:37:34;6.82;;;3.58;;
71969;SDS011;59838;52.152;5.436;2023-04-15T06:40:01;5.25;;;3.45;;
71969;SDS011;59838;52.152;5.436;2023-04-15T06:42:30;5.27;;;3.67;;
71969;SDS011;59838;52.152;5.436;2023-04-15T06:44:56;6.32;;;4.30;;
71969;SDS011;59838;52.152;5.436;2023-04-15T06:47:23;5.97;;;4.35;;
71969;SDS011;59838;52.152;5.436;2023-04-15T06:49:49;5.75;;;4.07;;
71969;SDS011;59838;52.152;5.436;2023-04-15T06:52:16;5.80;;;4.20;;
71969;SDS011;59838;52.152;5.436;2023-04-15T06:54:42;5.77;;;4.43;;
71969;SDS011;59838;52.152;5.436;2023-04-15T06:57:09;4.60;;;4.10;;
71969;SDS011;59838;52.152;5.436;2023-04-15T06:59:35;8.05;;;4.60;;
71969;SDS011;59838;52.152;5.436;2023-04-15T07:02:02;5.43;;;4.35;;
71969;SDS011;59838;52.152;5.436;2023-04-15T07:04:28;5.78;;;4.80;;
71969;SDS011;59838;52.152;5.436;2023-04-15T07:06:55;6.00;;;4.47;;
71969;SDS011;59838;52.152;5.436;2023-04-15T07:09:22;5.75;;;4.70;;
71969;SDS011;59838;52.152;5.436;2023-04-15T07:11:49;7.47;;;5.00;;
71969;SDS011;59838;52.152;5.436;2023-04-15T07:14:16;5.57;;;4.30;;
71969;SDS011;59838;52.152;5.436;2023-04-15T07:16:43;6.03;;;4.28;;
71969;SDS011;59838;52.152;5.436;2023-04-15T07:19:09;7.90;;;4.90;;
71969;SDS011;59838;52.152;5.436;2023-04-15T07:21:36;8.35;;;4.80;;
71969;SDS011;59838;52.152;5.436;2023-04-15T07:24:06;5.60;;;4.43;;
71969;SDS011;59838;52.152;5.436;2023-04-15T07:26:33;7.45;;;4.22;;
71969;SDS011;59838;52.152;5.436;2023-04-15T07:28:59;5.50;;;4.07;;
71969;SDS011;59838;52.152;5.436;2023-04-15T07:31:26;8.07;;;4.53;;
71969;SDS011;59838;52.152;5.436;2023-04-15T07:33:53;5.43;;;4.35;;
71969;SDS011;59838;52.152;5.436;2023-04-15T07:36:19;7.10;;;4.88;;
71969;SDS011;59838;52.152;5.436;2023-04-15T07:38:46;5.63;;;4.32;;
71969;SDS011;59838;52.152;5.436;2023-04-15T07:41:12;4.22;;;3.67;;
71969;SDS011;59838;52.152;5.436;2023-04-15T07:43:39;6.03;;;3.77;;
71969;SDS011;59838;52.152;5.436;2023-04-15T07:46:05;5.97;;;3.80;;
71969;SDS011;59838;52.152;5.436;2023-04-15T07:48:32;5.00;;;3.60;;
71969;SDS011;59838;52.152;5.436;2023-04-15T07:51:00;5.60;;;3.55;;
71969;SDS011;59838;52.152;5.436;2023-04-15T07:53:27;4.47;;;3.17;;
71969;SDS011;59838;52.152;5.436;2023-04-15T07:55:54;5.40;;;3.80;;
71969;SDS011;59838;52.152;5.436;2023-04-15T07:58:21;5.32;;;3.60;;
71969;SDS011;59838;52.152;5.436;2023-04-15T08:00:47;4.97;;;2.92;;
71969;SDS011;59838;52.152;5.436;2023-04-15T08:03:14;3.38;;;2.80;;
71969;SDS011;59838;52.152;5.436;2023-04-15T08:05:41;6.40;;;3.22;;
71969;SDS011;59838;52.152;5.436;2023-04-15T08:08:07;4.50;;;4.00;;
71969;SDS011;59838;52.152;5.436;2023-04-15T08:10:33;5.45;;;2.90;;
71969;SDS011;59838;52.152;5.436;2023-04-15T08:13:00;5.57;;;3.90;;
71969;SDS011;59838;52.152;5.436;2023-04-15T08:15:27;3.60;;;3.17;;
71969;SDS011;59838;52.152;5.436;2023-04-15T08:17:53;6.30;;;3.67;;
71969;SDS011;59838;52.152;5.436;2023-04-15T08:20:20;3.93;;;3.07;;
71969;SDS011;59838;52.152;5.436;2023-04-15T08:22:46;5.28;;;2.75;;
71969;SDS011;59838;52.152;5.436;2023-04-15T08:25:17;4.38;;;2.65;;
71969;SDS011;59838;52.152;5.436;2023-04-15T08:27:44;3.67;;;2.25;;
71969;SDS011;59838;52.152;5.436;2023-04-15T08:30:11;5.22;;;2.50;;
71969;SDS011;59838;52.152;5.436;2023-04-15T08:32:38;3.07;;;1.70;;
71969;SDS011;59838;52.152;5.436;2023-04-15T08:35:07;3.10;;;2.50;;
71969;SDS011;59838;52.152;5.436;2023-04-15T08:37:34;3.97;;;2.00;;
71969;SDS011;59838;52.152;5.436;2023-04-15T08:40:00;4.22;;;2.72;;
71969;SDS011;59838;52.152;5.436;2023-04-15T08:42:29;3.67;;;1.85;;
71969;SDS011;59838;52.152;5.436;2023-04-15T08:45:00;3.00;;;1.90;;
71969;SDS011;59838;52.152;5.436;2023-04-15T08:47:30;4.60;;;2.40;;
71969;SDS011;59838;52.152;5.436;2023-04-15T08:49:58;8.40;;;2.83;;
71969;SDS011;59838;52.152;5.436;2023-04-15T08:52:29;4.32;;;2.75;;
71969;SDS011;59838;52.152;5.436;2023-04-15T08:54:57;4.55;;;2.55;;
71969;SDS011;59838;52.152;5.436;2023-04-15T08:57:26;3.43;;;2.17;;
71969;SDS011;59838;52.152;5.436;2023-04-15T08:59:57;3.40;;;2.15;;
71969;SDS011;59838;52.152;5.436;2023-04-15T09:02:24;2.92;;;2.33;;
71969;SDS011;59838;52.152;5.436;2023-04-15T09:04:52;4.30;;;2.40;;
71969;SDS011;59838;52.152;5.436;2023-04-15T09:07:19;4.18;;;2.13;;
71969;SDS011;59838;52.152;5.436;2023-04-15T09:09:46;3.53;;;2.03;;
71969;SDS011;59838;52.152;5.436;2023-04-15T09:12:13;4.82;;;1.90;;
71969;SDS011;59838;52.152;5.436;2023-04-15T09:14:44;4.10;;;1.90;;
71969;SDS011;59838;52.152;5.436;2023-04-15T09:17:11;4.72;;;2.58;;
71969;SDS011;59838;52.152;5.436;2023-04-15T09:19:37;2.25;;;1.45;;
71969;SDS011;59838;52.152;5.436;2023-04-15T09:22:04;3.97;;;2.00;;
71969;SDS011;59838;52.152;5.436;2023-04-15T09:24:33;2.78;;;1.17;;
71969;SDS011;59838;52.152;5.436;2023-04-15T09:27:02;2.38;;;1.50;;
71969;SDS011;59838;52.152;5.436;2023-04-15T09:29:29;2.75;;;1.40;;
71969;SDS011;59838;52.152;5.436;2023-04-15T09:31:56;2.80;;;1.90;;
71969;SDS011;59838;52.152;5.436;2023-04-15T09:34:35;2.23;;;1.20;;
71969;SDS011;59838;52.152;5.436;2023-04-15T09:37:02;2.58;;;1.30;;
71969;SDS011;59838;52.152;5.436;2023-04-15T09:39:43;2.97;;;1.67;;
71969;SDS011;59838;52.152;5.436;2023-04-15T09:42:15;2.55;;;1.58;;
71969;SDS011;59838;52.152;5.436;2023-04-15T09:44:42;4.93;;;1.75;;
71969;SDS011;59838;52.152;5.436;2023-04-15T09:47:09;2.93;;;1.47;;
71969;SDS011;59838;52.152;5.436;2023-04-15T09:49:56;3.55;;;2.10;;
71969;SDS011;59838;52.152;5.436;2023-04-15T09:52:23;4.93;;;1.70;;
71969;SDS011;59838;52.152;5.436;2023-04-15T09:54:52;2.85;;;1.10;;
71969;SDS011;59838;52.152;5.436;2023-04-15T09:57:20;3.05;;;0.93;;
71969;SDS011;59838;52.152;5.436;2023-04-15T09:59:49;3.33;;;1.30;;
71969;SDS011;59838;52.152;5.436;2023-04-15T10:02:17;2.63;;;1.27;;
71969;SDS011;59838;52.152;5.436;2023-04-15T10:04:46;3.42;;;1.85;;
71969;SDS011;59838;52.152;5.436;2023-04-15T10:07:14;3.22;;;1.80;;
71969;SDS011;59838;52.152;5.436;2023-04-15T10:09:41;3.22;;;1.75;;
71969;SDS011;59838;52.152;5.436;2023-04-15T10:12:10;2.47;;;1.20;;
71969;SDS011;59838;52.152;5.436;2023-04-15T10:14:38;1.90;;;0.75;;
71969;SDS011;59838;52.152;5.436;2023-04-15T10:17:06;2.72;;;1.08;;
71969;SDS011;59838;52.152;5.436;2023-04-15T10:19:35;3.92;;;0.98;;
71969;SDS011;59838;52.152;5.436;2023-04-15T10:22:03;2.70;;;1.30;;
71969;SDS011;59838;52.152;5.436;2023-04-15T10:24:30;3.97;;;1.50;;
71969;SDS011;59838;52.152;5.436;2023-04-15T10:26:57;1.90;;;1.15;;
71969;SDS011;59838;52.152;5.436;2023-04-15T10:29:25;3.38;;;1.27;;
71969;SDS011;59838;52.152;5.436;2023-04-15T10:31:54;2.10;;;1.25;;
71969;SDS011;59838;52.152;5.436;2023-04-15T10:34:22;2.80;;;1.05;;
71969;SDS011;59838;52.152;5.436;2023-04-15T10:36:49;2.97;;;1.50;;
71969;SDS011;59838;52.152;5.436;2023-04-15T10:42:16;2.83;;;1.52;;
71969;SDS011;59838;52.152;5.436;2023-04-15T10:44:47;5.80;;;1.17;;
71969;SDS011;59838;52.152;5.436;2023-04-15T10:47:18;3.08;;;1.33;;
71969;SDS011;59838;52.152;5.436;2023-04-15T10:49:48;4.53;;;0.87;;
71969;SDS011;59838;52.152;5.436;2023-04-15T10:52:23;2.65;;;1.20;;
71969;SDS011;59838;52.152;5.436;2023-04-15T10:57:41;2.88;;;1.27;;
71969;SDS011;59838;52.152;5.436;2023-04-15T11:05:47;2.85;;;1.10;;
71969;SDS011;59838;52.152;5.436;2023-04-15T11:08:16;3.22;;;1.20;;
71969;SDS011;59838;52.152;5.436;2023-04-15T11:15:37;2.60;;;0.80;;
71969;SDS011;59838;52.152;5.436;2023-04-15T11:18:09;1.38;;;0.68;;
71969;SDS011;59838;52.152;5.436;2023-04-15T11:20:49;2.05;;;1.10;;
71969;SDS011;59838;52.152;5.436;2023-04-15T11:23:17;1.65;;;0.70;;
71969;SDS011;59838;52.152;5.436;2023-04-15T11:25:44;4.28;;;1.25;;
71969;SDS011;59838;52.152;5.436;2023-04-15T11:28:11;1.80;;;0.87;;
71969;SDS011;59838;52.152;5.436;2023-04-15T11:30:39;4.35;;;0.98;;
71969;SDS011;59838;52.152;5.436;2023-04-15T11:33:06;1.42;;;0.70;;
71969;SDS011;59838;52.152;5.436;2023-04-15T11:35:34;2.83;;;1.00;;
71969;SDS011;59838;52.152;5.436;2023-04-15T11:38:05;1.65;;;0.95;;
71969;SDS011;59838;52.152;5.436;2023-04-15T11:40:35;2.10;;;0.80;;
71969;SDS011;59838;52.152;5.436;2023-04-15T11:43:24;2.75;;;1.30;;
71969;SDS011;59838;52.152;5.436;2023-04-15T11:45:51;2.92;;;0.98;;
71969;SDS011;59838;52.152;5.436;2023-04-15T11:48:18;2.05;;;0.57;;
71969;SDS011;59838;52.152;5.436;2023-04-15T11:50:54;4.25;;;0.90;;
71969;SDS011;59838;52.152;5.436;2023-04-15T11:53:23;2.80;;;0.80;;
71969;SDS011;59838;52.152;5.436;2023-04-15T11:55:51;2.10;;;0.93;;
71969;SDS011;59838;52.152;5.436;2023-04-15T11:58:22;2.88;;;0.80;;
71969;SDS011;59838;52.152;5.436;2023-04-15T12:00:54;1.83;;;0.73;;
71969;SDS011;59838;52.152;5.436;2023-04-15T12:06:11;2.27;;;0.90;;
71969;SDS011;59838;52.152;5.436;2023-04-15T12:08:47;1.38;;;0.85;;
71969;SDS011;59838;52.152;5.436;2023-04-15T12:14:11;2.90;;;0.68;;
71969;SDS011;59838;52.152;5.436;2023-04-15T12:16:43;1.73;;;0.57;;
71969;SDS011;59838;52.152;5.436;2023-04-15T12:19:48;0.87;;;0.40;;
71969;SDS011;59838;52.152;5.436;2023-04-15T12:22:08;2.75;;;0.82;;
71969;SDS011;59838;52.152;5.436;2023-04-15T12:24:36;3.03;;;0.40;;
71969;SDS011;59838;52.152;5.436;2023-04-15T12:27:07;1.50;;;0.43;;
71969;SDS011;59838;52.152;5.436;2023-04-15T12:29:36;1.70;;;0.60;;
71969;SDS011;59838;52.152;5.436;2023-04-15T12:32:06;0.80;;;0.30;;
71969;SDS011;59838;52.152;5.436;2023-04-15T12:34:38;1.00;;;0.40;;
71969;SDS011;59838;52.152;5.436;2023-04-15T12:37:08;1.00;;;0.50;;
71969;SDS011;59838;52.152;5.436;2023-04-15T12:39:37;1.95;;;0.57;;
71969;SDS011;59838;52.152;5.436;2023-04-15T12:42:06;1.33;;;0.38;;
71969;SDS011;59838;52.152;5.436;2023-04-15T12:44:34;1.57;;;0.40;;
71969;SDS011;59838;52.152;5.436;2023-04-15T12:47:01;1.77;;;0.60;;
71969;SDS011;59838;52.152;5.436;2023-04-15T12:49:29;1.98;;;0.52;;
71969;SDS011;59838;52.152;5.436;2023-04-15T12:51:58;1.70;;;0.50;;
71969;SDS011;59838;52.152;5.436;2023-04-15T12:54:26;2.60;;;0.50;;
71969;SDS011;59838;52.152;5.436;2023-04-15T12:56:53;1.30;;;0.60;;
71969;SDS011;59838;52.152;5.436;2023-04-15T12:59:21;2.28;;;0.50;;
71969;SDS011;59838;52.152;5.436;2023-04-15T13:01:49;2.33;;;0.35;;
71969;SDS011;59838;52.152;5.436;2023-04-15T13:04:18;4.95;;;0.60;;
71969;SDS011;59838;52.152;5.436;2023-04-15T13:06:45;2.70;;;0.50;;
71969;SDS011;59838;52.152;5.436;2023-04-15T13:09:12;5.50;;;0.60;;
71969;SDS011;59838;52.152;5.436;2023-04-15T13:11:39;3.05;;;0.70;;
71969;SDS011;59838;52.152;5.436;2023-04-15T13:14:06;2.25;;;0.65;;
71969;SDS011;59838;52.152;5.436;2023-04-15T13:16:34;1.05;;;0.40;;
71969;SDS011;59838;52.152;5.436;2023-04-15T13:19:01;2.38;;;0.68;;
71969;SDS011;59838;52.152;5.436;2023-04-15T13:21:29;2.50;;;0.50;;
71969;SDS011;59838;52.152;5.436;2023-04-15T13:23:57;3.08;;;0.38;;
71969;SDS011;59838;52.152;5.436;2023-04-15T13:26:24;4.00;;;0.63;;
71969;SDS011;59838;52.152;5.436;2023-04-15T13:28:51;1.88;;;0.60;;
71969;SDS011;59838;52.152;5.436;2023-04-15T13:31:17;1.92;;;0.63;;
71969;SDS011;59838;52.152;5.436;2023-04-15T13:33:44;2.67;;;0.40;;
71969;SDS011;59838;52.152;5.436;2023-04-15T13:36:10;2.53;;;0.50;;
71969;SDS011;59838;52.152;5.436;2023-04-15T13:38:37;1.42;;;0.73;;
71969;SDS011;59838;52.152;5.436;2023-04-15T13:41:03;1.02;;;0.50;;
71969;SDS011;59838;52.152;5.436;2023-04-15T13:43:30;2.75;;;0.47;;
71969;SDS011;59838;52.152;5.436;2023-04-15T13:45:59;3.70;;;0.60;;
71969;SDS011;59838;52.152;5.436;2023-04-15T13:48:27;0.70;;;0.30;;
71969;SDS011;59838;52.152;5.436;2023-04-15T13:50:53;1.58;;;0.60;;
71969;SDS011;59838;52.152;5.436;2023-04-15T13:53:20;1.88;;;0.38;;
71969;SDS011;59838;52.152;5.436;2023-04-15T13:56:03;1.98;;;0.28;;
71969;SDS011;59838;52.152;5.436;2023-04-15T13:58:31;1.53;;;0.37;;
71969;SDS011;59838;52.152;5.436;2023-04-15T14:00:58;2.10;;;0.57;;
71969;SDS011;59838;52.152;5.436;2023-04-15T14:03:24;1.67;;;0.70;;
71969;SDS011;59838;52.152;5.436;2023-04-15T14:05:51;2.20;;;0.77;;
71969;SDS011;59838;52.152;5.436;2023-04-15T14:08:21;1.15;;;0.30;;
71969;SDS011;59838;52.152;5.436;2023-04-15T14:10:48;1.23;;;0.50;;
71969;SDS011;59838;52.152;5.436;2023-04-15T14:13:14;1.20;;;0.30;;
71969;SDS011;59838;52.152;5.436;2023-04-15T14:15:41;2.38;;;0.50;;
71969;SDS011;59838;52.152;5.436;2023-04-15T14:18:07;2.38;;;0.57;;
71969;SDS011;59838;52.152;5.436;2023-04-15T14:20:34;2.88;;;0.50;;
71969;SDS011;59838;52.152;5.436;2023-04-15T14:23:00;3.80;;;0.40;;
71969;SDS011;59838;52.152;5.436;2023-04-15T14:25:27;4.75;;;0.30;;
71969;SDS011;59838;52.152;5.436;2023-04-15T14:27:59;4.45;;;1.02;;
71969;SDS011;59838;52.152;5.436;2023-04-15T14:30:25;2.85;;;0.50;;
71969;SDS011;59838;52.152;5.436;2023-04-15T14:32:53;2.35;;;0.40;;
71969;SDS011;59838;52.152;5.436;2023-04-15T14:35:20;3.13;;;0.60;;
71969;SDS011;59838;52.152;5.436;2023-04-15T14:37:46;1.65;;;0.43;;
71969;SDS011;59838;52.152;5.436;2023-04-15T14:40:13;2.72;;;0.57;;
71969;SDS011;59838;52.152;5.436;2023-04-15T14:42:39;3.28;;;0.40;;
71969;SDS011;59838;52.152;5.436;2023-04-15T14:45:06;3.13;;;0.68;;
71969;SDS011;59838;52.152;5.436;2023-04-15T14:47:33;1.67;;;0.50;;
71969;SDS011;59838;52.152;5.436;2023-04-15T14:49:59;0.82;;;0.30;;
71969;SDS011;59838;52.152;5.436;2023-04-15T14:52:26;5.88;;;0.40;;
71969;SDS011;59838;52.152;5.436;2023-04-15T14:54:52;6.90;;;0.50;;
71969;SDS011;59838;52.152;5.436;2023-04-15T14:57:19;3.85;;;0.30;;
71969;SDS011;59838;52.152;5.436;2023-04-15T14:59:45;4.63;;;0.50;;
71969;SDS011;59838;52.152;5.436;2023-04-15T15:02:12;2.90;;;0.40;;
71969;SDS011;59838;52.152;5.436;2023-04-15T15:04:51;2.60;;;0.40;;
71969;SDS011;59838;52.152;5.436;2023-04-15T15:07:18;2.05;;;0.40;;
71969;SDS011;59838;52.152;5.436;2023-04-15T15:09:44;2.30;;;0.38;;
71969;SDS011;59838;52.152;5.436;2023-04-15T15:12:11;1.17;;;0.30;;